Kodiak, AK

7:48 PM AKDT on April 26, 2017 (GMT -0800)
Rezanof & Armstrong | | Change Station

Elev 75 ft 57.80 °N, 152.38 °W | Updated 20 seconds ago

Overcast
Overcast
45.7 °F
Feels Like 46 °F
N
0.0
Wind Variable Wind from North
Gusts 4.5 mph

Today
High -- | Low -- °F
--% Chance of Precip.
Yesterday
High -- | Low -- °F
Precip. -- in
Pressure 29.59 in
Visibility 10.0 miles
Clouds Mostly Cloudy 3000 ft
Overcast 6500 ft
Windchill 46 °F
Dew Point 37 °F
Humidity 71%
Rainfall 0.00 in
Snow Depth Not available.
6:29 AM 9:47 PM
New Moon, 1% visible
METAR PADQ 270253Z 02006KT 10SM BKN030 OVC065 07/03 A2959 RMK AO2 SLP019 T00720033 53010
Pressure 29.59 in
Visibility 10.0 miles
Clouds Mostly Cloudy 3000 ft
Overcast 6500 ft
Windchill 46 °F
Dew Point 37 °F
Humidity 71%
Rainfall 0.00 in
Snow Depth Not available.
6:29 AM 9:47 PM
New Moon, 1% visible
METAR PADQ 270253Z 02006KT 10SM BKN030 OVC065 07/03 A2959 RMK AO2 SLP019 T00720033 53010

Get Severe Weather Alerts

Thanks for signing up!

Be on the lookout for a verification email in your inbox.

You'll start receiving the daily forecast at 8 AM.

×

10-Day Weather Forecast

Almanac

Astronomy

Apr. 26, 2017 Rise Set
Actual Time
Civil Twilight
Nautical Twilight
Astronomical Twilight
Moon
Length of Visible Light
Length of Day
Tomorrow will be .
, % of the Moon is Illuminated

Today's Extremes

State Highs State Lows

Community

WunderPhotos

WunderBlog® & News

Nearby

Air Quality

  Air Quality AQ Index Pollutant
Not available.

Snow Depth

Station Depth Elevation

Earthquake Activity

City Distance Mag. Time & Date
Minimum magnitude displayed is 2.5.

Coastal Water Temperatures

Place Temperature

Stations

Nearby Weather Stations

Station Location Temp. Windchill Dew Point Humidity Wind Precip. Elev Updated Type
                   

Watches & Warnings

There are currently no watches in effect.